Time;durP1;ratioP1;P1;durP2;ratioP2;P2;SDS_P1;SDS_P2;PMS_P1;PMS_P2;Temp;Humidity;BMP_temperature;BMP_pressure;BME280_temperature;BME280_humidity;BME280_pressure;Samples;Min_cycle;Max_cycle;Signal;HPM_P1;HPM_P2
2022/02/15 00:00:19;;;;;;;;;;;;;;;;;;4955127;28;19926;-66
2022/02/15 00:02:46;;;;;;;;;;;;;;;;;;4953923;28;19926;-66
2022/02/15 00:05:13;;;;;;;;;;;;;;;;;;4952261;28;19927;-67
2022/02/15 00:07:40;;;;;;;;;;;;;;;;;;4951490;28;19957;-66
2022/02/15 00:10:08;;;;;;;;;;;;;;;;;;4952839;28;19981;-67
2022/02/15 00:12:35;;;;;;;;;;;;;;;;;;4951164;28;19981;-66
2022/02/15 00:15:02;;;;;;;;;;;;;;;;;;4957187;28;20286;-66
2022/02/15 00:17:29;;;;;;;;;;;;;;;;;;4951842;28;19927;-66
2022/02/15 00:19:55;;;;;;;;;;;;;;;;;;4951302;28;19934;-66
2022/02/15 00:22:22;;;;;;;;;;;;;;;;;;4954962;28;20411;-66
2022/02/15 00:24:49;;;;;;;;;;;;;;;;;;4954201;28;20425;-67
2022/02/15 00:27:16;;;;;;;;;;;;;;;;;;4956296;28;19934;-66
2022/02/15 00:29:43;;;;;;;;;;;;;;;;;;4958039;28;20413;-66
2022/02/15 00:32:10;;;;;;;;;;;;;;;;;;4951950;28;19927;-67
2022/02/15 00:34:37;;;;;;;;;;;;;;;;;;4946972;28;19926;-66
2022/02/15 00:37:04;;;;;;;;;;;;;;;;;;4954171;28;19938;-66
2022/02/15 00:39:31;;;;;;;;;;;;;;;;;;4952921;28;19963;-68
2022/02/15 00:41:58;;;;;;;;;;;;;;;;;;4957419;28;19933;-67
2022/02/15 00:44:26;;;;;;;;;;;;;;;;;;4950783;28;19949;-66
2022/02/15 00:46:53;;;;;;;;;;;;;;;;;;4947047;28;19930;-67
2022/02/15 00:49:21;;;;;;;;;;;;;;;;;;4950439;28;19942;-66
2022/02/15 00:51:48;;;;;;;;;;;;;;;;;;4951425;28;20313;-66
2022/02/15 00:54:15;;;;;;;;;;;;;;;;;;4948879;28;19933;-66
2022/02/15 00:56:42;;;;;;;;;;;;;;;;;;4949739;28;20337;-66
2022/02/15 00:59:09;;;;;;;;;;;;;;;;;;4948586;28;19942;-67
2022/02/15 01:01:36;;;;;;;;;;;;;;;;;;4950773;28;20055;-67
2022/02/15 01:04:03;;;;;;;;;;;;;;;;;;4953301;28;19942;-67
2022/02/15 01:06:30;;;;;;;;;;;;;;;;;;4952541;28;21342;-67
2022/02/15 01:08:57;;;;;;;;;;;;;;;;;;4954936;28;19926;-67
2022/02/15 01:11:24;;;;;;;;;;;;;;;;;;4956565;28;19933;-67
2022/02/15 01:13:51;;;;;;;;;;;;;;;;;;4954494;28;19926;-66
2022/02/15 01:16:17;;;;;;;;;;;;;;;;;;4955931;28;20393;-66
2022/02/15 01:18:44;;;;;;;;;;;;;;;;;;4950772;28;19933;-66
2022/02/15 01:21:11;;;;;;;;;;;;;;;;;;4951028;28;19934;-66
2022/02/15 01:23:38;;;;;;;;;;;;;;;;;;4949464;28;20413;-66
2022/02/15 01:26:05;;;;;;;;;;;;;;;;;;4948841;29;19933;-66
2022/02/15 01:28:34;;;;;;;;;;;;;;;;;;4952425;28;20349;-65
2022/02/15 01:31:01;;;;;;;;;;;;;;;;;;4958588;28;19996;-66
2022/02/15 01:33:28;;;;;;;;;;;;;;;;;;4952430;28;20293;-67
2022/02/15 01:35:55;;;;;;;;;;;;;;;;;;4945867;28;20286;-67
2022/02/15 01:38:22;;;;;;;;;;;;;;;;;;4953917;28;19934;-67
2022/02/15 01:40:49;;;;;;;;;;;;;;;;;;4949674;29;19934;-67
2022/02/15 01:43:16;;;;;;;;;;;;;;;;;;4949326;28;19967;-66
2022/02/15 01:45:43;;;;;;;;;;;;;;;;;;4945271;28;19934;-67
2022/02/15 01:48:10;;;;;;;;;;;;;;;;;;4953388;28;19926;-67
2022/02/15 01:50:37;;;;;;;;;;;;;;;;;;4958121;28;20012;-68
2022/02/15 01:53:03;;;;;;;;;;;;;;;;;;4952872;28;20396;-68
2022/02/15 01:55:31;;;;;;;;;;;;;;;;;;4946093;28;19934;-67
2022/02/15 01:57:58;;;;;;;;;;;;;;;;;;4947426;28;19935;-66
2022/02/15 02:00:25;;;;;;;;;;;;;;;;;;4961114;28;19933;-66
2022/02/15 02:02:52;;;;;;;;;;;;;;;;;;4954892;28;19930;-66
2022/02/15 02:07:59;;;;;;;;;;;;;;;;;;4936085;28;19930;-67
2022/02/15 02:10:26;;;;;;;;;;;;;;;;;;4955449;28;19927;-67
2022/02/15 02:12:54;;;;;;;;;;;;;;;;;;4950486;28;19934;-67
2022/02/15 02:15:21;;;;;;;;;;;;;;;;;;4952924;28;19926;-67
2022/02/15 02:17:48;;;;;;;;;;;;;;;;;;4952904;28;19926;-67
2022/02/15 02:20:14;;;;;;;;;;;;;;;;;;4957592;28;20301;-67
2022/02/15 02:22:41;;;;;;;;;;;;;;;;;;4953595;28;19935;-67
2022/02/15 02:25:09;;;;;;;;;;;;;;;;;;4956621;28;20926;-67
2022/02/15 02:27:36;;;;;;;;;;;;;;;;;;4950980;28;20317;-67
2022/02/15 02:30:03;;;;;;;;;;;;;;;;;;4951583;28;19926;-67
2022/02/15 02:32:30;;;;;;;;;;;;;;;;;;4946867;28;20009;-67
2022/02/15 02:34:57;;;;;;;;;;;;;;;;;;4955311;28;19927;-67
2022/02/15 02:37:23;;;;;;;;;;;;;;;;;;4955582;28;20271;-66
2022/02/15 02:39:50;;;;;;;;;;;;;;;;;;4950628;28;19931;-67
2022/02/15 02:42:18;;;;;;;;;;;;;;;;;;4951994;28;19934;-67
2022/02/15 02:44:45;;;;;;;;;;;;;;;;;;4955794;28;19962;-67
2022/02/15 02:47:11;;;;;;;;;;;;;;;;;;4951475;28;19953;-67
2022/02/15 02:49:38;;;;;;;;;;;;;;;;;;4955922;28;19926;-67
2022/02/15 02:52:05;;;;;;;;;;;;;;;;;;4950557;28;20375;-67
2022/02/15 02:54:32;;;;;;;;;;;;;;;;;;4953635;28;19930;-67
2022/02/15 02:57:00;;;;;;;;;;;;;;;;;;4956022;28;20283;-66
2022/02/15 02:59:27;;;;;;;;;;;;;;;;;;4955140;28;19945;-66
2022/02/15 03:01:54;;;;;;;;;;;;;;;;;;4958448;28;20306;-66
2022/02/15 03:04:20;;;;;;;;;;;;;;;;;;4955332;28;19931;-67
2022/02/15 03:06:47;;;;;;;;;;;;;;;;;;4952964;28;19927;-66
2022/02/15 03:09:14;;;;;;;;;;;;;;;;;;4958907;28;19933;-66
2022/02/15 03:11:41;;;;;;;;;;;;;;;;;;4957911;28;20392;-67
2022/02/15 03:14:08;;;;;;;;;;;;;;;;;;4953074;28;19990;-66
2022/02/15 03:16:35;;;;;;;;;;;;;;;;;;4953882;28;19930;-67
2022/02/15 03:19:02;;;;;;;;;;;;;;;;;;4958644;28;19930;-66
2022/02/15 03:21:29;;;;;;;;;;;;;;;;;;4951441;28;19965;-66
2022/02/15 03:23:56;;;;;;;;;;;;;;;;;;4954860;28;19926;-66
2022/02/15 03:26:23;;;;;;;;;;;;;;;;;;4955057;28;20494;-66
2022/02/15 03:28:49;;;;;;;;;;;;;;;;;;4951408;29;19933;-66
2022/02/15 03:31:16;;;;;;;;;;;;;;;;;;4954585;28;19933;-66
2022/02/15 03:33:44;;;;;;;;;;;;;;;;;;4955640;28;19926;-66
2022/02/15 03:36:11;;;;;;;;;;;;;;;;;;4951865;28;19930;-66
2022/02/15 03:38:38;;;;;;;;;;;;;;;;;;4950817;28;19927;-66
2022/02/15 03:43:50;;;;;;;;;;;;;;;;;;4952210;28;19922;-66
2022/02/15 03:46:17;;;;;;;;;;;;;;;;;;4950951;28;20029;-66
2022/02/15 03:48:43;;;;;;;;;;;;;;;;;;4955130;28;19930;-66
2022/02/15 03:51:10;;;;;;;;;;;;;;;;;;4953389;28;19927;-66
2022/02/15 03:53:37;;;;;;;;;;;;;;;;;;4951777;28;19942;-67
2022/02/15 03:56:04;;;;;;;;;;;;;;;;;;4956720;28;20550;-67
2022/02/15 03:58:32;;;;;;;;;;;;;;;;;;4953105;28;19934;-67
2022/02/15 04:00:59;;;;;;;;;;;;;;;;;;4955173;28;19942;-67
2022/02/15 04:03:25;;;;;;;;;;;;;;;;;;4957822;28;19927;-67
2022/02/15 04:05:53;;;;;;;;;;;;;;;;;;4956347;28;20295;-65
2022/02/15 04:08:21;;;;;;;;;;;;;;;;;;4949640;28;19970;-66
2022/02/15 04:10:48;;;;;;;;;;;;;;;;;;4955766;28;19948;-66
2022/02/15 04:13:15;;;;;;;;;;;;;;;;;;4953587;28;19935;-66
2022/02/15 04:15:42;;;;;;;;;;;;;;;;;;4953659;28;20024;-65
2022/02/15 04:18:09;;;;;;;;;;;;;;;;;;4948195;28;19934;-67
2022/02/15 04:20:36;;;;;;;;;;;;;;;;;;4951047;28;19925;-67
2022/02/15 04:23:03;;;;;;;;;;;;;;;;;;4952680;28;19935;-66
2022/02/15 04:25:30;;;;;;;;;;;;;;;;;;4949082;28;19934;-66
2022/02/15 04:27:57;;;;;;;;;;;;;;;;;;4960523;28;19933;-66
2022/02/15 04:30:24;;;;;;;;;;;;;;;;;;4954366;28;19933;-66
2022/02/15 04:32:51;;;;;;;;;;;;;;;;;;4950431;28;20317;-66
2022/02/15 04:35:18;;;;;;;;;;;;;;;;;;4959668;28;19933;-67
2022/02/15 04:37:45;;;;;;;;;;;;;;;;;;4952732;28;19933;-67
2022/02/15 04:40:11;;;;;;;;;;;;;;;;;;4952991;28;19926;-66
2022/02/15 04:42:38;;;;;;;;;;;;;;;;;;4951639;28;19927;-66
2022/02/15 04:45:05;;;;;;;;;;;;;;;;;;4958130;28;20399;-67
2022/02/15 04:47:32;;;;;;;;;;;;;;;;;;4956278;28;19930;-67
2022/02/15 04:49:59;;;;;;;;;;;;;;;;;;4951022;28;19934;-67
2022/02/15 04:52:26;;;;;;;;;;;;;;;;;;4950542;28;19927;-65
2022/02/15 04:54:53;;;;;;;;;;;;;;;;;;4953674;28;19926;-66
2022/02/15 04:57:20;;;;;;;;;;;;;;;;;;4949503;28;19934;-66
2022/02/15 04:59:47;;;;;;;;;;;;;;;;;;4951464;28;19927;-65
2022/02/15 05:02:14;;;;;;;;;;;;;;;;;;4953836;28;19934;-65
2022/02/15 05:04:50;;;;;;;;;;;;;;;;;;4957393;28;19933;-68
2022/02/15 05:07:17;;;;;;;;;;;;;;;;;;4951872;28;20309;-66
2022/02/15 05:09:44;;;;;;;;;;;;;;;;;;4958779;28;20369;-66
2022/02/15 05:12:12;;;;;;;;;;;;;;;;;;4951972;28;19933;-66
2022/02/15 05:14:39;;;;;;;;;;;;;;;;;;4950381;28;19933;-67
2022/02/15 05:17:06;;;;;;;;;;;;;;;;;;4954843;28;19930;-66
2022/02/15 05:19:33;;;;;;;;;;;;;;;;;;4948243;28;19934;-67
2022/02/15 05:22:00;;;;;;;;;;;;;;;;;;4952413;28;19934;-67
2022/02/15 05:24:27;;;;;;;;;;;;;;;;;;4949249;28;19931;-66
2022/02/15 05:26:54;;;;;;;;;;;;;;;;;;4947272;28;19949;-66
2022/02/15 05:29:21;;;;;;;;;;;;;;;;;;4950264;28;19935;-66
2022/02/15 05:31:49;;;;;;;;;;;;;;;;;;4951703;28;19927;-68
2022/02/15 05:34:16;;;;;;;;;;;;;;;;;;4953929;28;19927;-66
2022/02/15 05:36:43;;;;;;;;;;;;;;;;;;4951928;28;20298;-66
2022/02/15 05:39:10;;;;;;;;;;;;;;;;;;4950409;28;19931;-66
2022/02/15 05:41:37;;;;;;;;;;;;;;;;;;4947213;28;20308;-67
2022/02/15 05:44:04;;;;;;;;;;;;;;;;;;4948638;28;19973;-67
2022/02/15 05:46:31;;;;;;;;;;;;;;;;;;4951247;28;20332;-66
2022/02/15 05:48:58;;;;;;;;;;;;;;;;;;4948895;28;20011;-67
2022/02/15 05:51:25;;;;;;;;;;;;;;;;;;4946304;28;20290;-66
2022/02/15 05:53:53;;;;;;;;;;;;;;;;;;4949627;28;19926;-66
2022/02/15 05:56:20;;;;;;;;;;;;;;;;;;4954054;28;19973;-66
2022/02/15 05:58:46;;;;;;;;;;;;;;;;;;4953563;28;19968;-66
2022/02/15 06:01:13;;;;;;;;;;;;;;;;;;4948334;28;19930;-66
2022/02/15 06:06:25;;;;;;;;;;;;;;;;;;4943842;28;19938;-67
2022/02/15 06:08:52;;;;;;;;;;;;;;;;;;4948264;28;19934;-67
2022/02/15 06:11:19;;;;;;;;;;;;;;;;;;4950386;28;20377;-67
2022/02/15 06:13:46;;;;;;;;;;;;;;;;;;4944032;28;20352;-67
2022/02/15 06:16:13;;;;;;;;;;;;;;;;;;4942810;28;19931;-67
2022/02/15 06:18:40;;;;;;;;;;;;;;;;;;4956081;28;19926;-67
2022/02/15 06:21:07;;;;;;;;;;;;;;;;;;4956304;28;19934;-67
2022/02/15 06:23:33;;;;;;;;;;;;;;;;;;4956039;28;19934;-67
2022/02/15 06:26:00;;;;;;;;;;;;;;;;;;4950984;28;19926;-67
2022/02/15 06:28:27;;;;;;;;;;;;;;;;;;4952893;28;20313;-67
2022/02/15 06:30:56;;;;;;;;;;;;;;;;;;4952886;28;19933;-67
2022/02/15 06:33:23;;;;;;;;;;;;;;;;;;4947804;28;19926;-66
2022/02/15 06:35:50;;;;;;;;;;;;;;;;;;4951406;28;20432;-66
2022/02/15 06:38:17;;;;;;;;;;;;;;;;;;4955125;28;19934;-67
2022/02/15 06:40:44;;;;;;;;;;;;;;;;;;4957210;28;19927;-67
2022/02/15 06:43:11;;;;;;;;;;;;;;;;;;4954932;28;19933;-67
2022/02/15 06:45:38;;;;;;;;;;;;;;;;;;4950714;28;20354;-66
2022/02/15 06:48:05;;;;;;;;;;;;;;;;;;4951934;28;19927;-66
2022/02/15 06:50:32;;;;;;;;;;;;;;;;;;4954408;28;20294;-66
2022/02/15 06:52:59;;;;;;;;;;;;;;;;;;4947780;28;19927;-67
2022/02/15 06:55:25;;;;;;;;;;;;;;;;;;4953147;28;19926;-67
2022/02/15 06:57:52;;;;;;;;;;;;;;;;;;4955711;28;20272;-67
2022/02/15 07:00:19;;;;;;;;;;;;;;;;;;4946976;28;19969;-67
2022/02/15 07:02:46;;;;;;;;;;;;;;;;;;4940127;28;19926;-66
2022/02/15 07:05:13;;;;;;;;;;;;;;;;;;4948796;28;19940;-66
2022/02/15 07:07:40;;;;;;;;;;;;;;;;;;4950572;28;19934;-66
2022/02/15 07:10:08;;;;;;;;;;;;;;;;;;4947029;28;20298;-65
2022/02/15 07:12:35;;;;;;;;;;;;;;;;;;4944427;28;19933;-65
2022/02/15 07:15:02;;;;;;;;;;;;;;;;;;4942738;28;19933;-65
2022/02/15 07:17:29;;;;;;;;;;;;;;;;;;4949373;28;20140;-65
2022/02/15 07:19:56;;;;;;;;;;;;;;;;;;4948834;28;19930;-65
2022/02/15 07:22:23;;;;;;;;;;;;;;;;;;4954459;28;20017;-65
2022/02/15 07:24:50;;;;;;;;;;;;;;;;;;4952681;28;19930;-65
2022/02/15 07:27:17;;;;;;;;;;;;;;;;;;4950189;29;20354;-65
2022/02/15 07:29:44;;;;;;;;;;;;;;;;;;4947527;28;20075;-65
2022/02/15 07:32:11;;;;;;;;;;;;;;;;;;4954343;28;20289;-66
2022/02/15 07:34:38;;;;;;;;;;;;;;;;;;4949833;28;19942;-65
2022/02/15 07:37:05;;;;;;;;;;;;;;;;;;4947464;28;20021;-66
2022/02/15 07:39:32;;;;;;;;;;;;;;;;;;4948684;28;20330;-66
2022/02/15 07:41:59;;;;;;;;;;;;;;;;;;4950233;28;19933;-66
2022/02/15 07:44:26;;;;;;;;;;;;;;;;;;4951313;28;19926;-65
2022/02/15 07:46:52;;;;;;;;;;;;;;;;;;4943732;28;19945;-66
2022/02/15 07:49:19;;;;;;;;;;;;;;;;;;4956778;28;19926;-66
2022/02/15 07:51:48;;;;;;;;;;;;;;;;;;4949211;28;19926;-67
2022/02/15 07:54:15;;;;;;;;;;;;;;;;;;4953266;28;19934;-66
2022/02/15 07:56:42;;;;;;;;;;;;;;;;;;4948564;28;20532;-66
2022/02/15 07:59:09;;;;;;;;;;;;;;;;;;4950062;28;19941;-66
2022/02/15 08:01:36;;;;;;;;;;;;;;;;;;4946431;28;19937;-66
2022/02/15 08:04:03;;;;;;;;;;;;;;;;;;4953297;28;19945;-66
2022/02/15 08:06:30;;;;;;;;;;;;;;;;;;4945811;28;20241;-67
2022/02/15 08:08:57;;;;;;;;;;;;;;;;;;4952823;28;19926;-66
2022/02/15 08:11:25;;;;;;;;;;;;;;;;;;4950273;28;19926;-66
2022/02/15 08:13:53;;;;;;;;;;;;;;;;;;4951412;28;19948;-65
2022/02/15 08:16:20;;;;;;;;;;;;;;;;;;4939069;28;19927;-66
2022/02/15 08:18:47;;;;;;;;;;;;;;;;;;4953367;28;19931;-67
2022/02/15 08:21:14;;;;;;;;;;;;;;;;;;4948017;28;20334;-66
2022/02/15 08:23:41;;;;;;;;;;;;;;;;;;4955676;28;19938;-66
2022/02/15 08:26:08;;;;;;;;;;;;;;;;;;4946344;28;21217;-66
2022/02/15 08:28:40;;;;;;;;;;;;;;;;;;4945762;28;19933;-66
2022/02/15 08:31:07;;;;;;;;;;;;;;;;;;4946051;28;20405;-67
2022/02/15 08:33:34;;;;;;;;;;;;;;;;;;4954726;28;19926;-66
2022/02/15 08:36:01;;;;;;;;;;;;;;;;;;4950159;29;19934;-67
2022/02/15 08:38:31;;;;;;;;;;;;;;;;;;4948337;28;19934;-67
2022/02/15 08:40:58;;;;;;;;;;;;;;;;;;4945922;28;20278;-66
2022/02/15 08:43:25;;;;;;;;;;;;;;;;;;4944528;28;19930;-66
2022/02/15 08:45:52;;;;;;;;;;;;;;;;;;4946821;28;19927;-66
2022/02/15 08:48:19;;;;;;;;;;;;;;;;;;4957564;28;20311;-66
2022/02/15 08:50:46;;;;;;;;;;;;;;;;;;4944909;28;19934;-66
2022/02/15 08:53:13;;;;;;;;;;;;;;;;;;4940049;28;20397;-66
2022/02/15 08:55:40;;;;;;;;;;;;;;;;;;4950865;28;19933;-67
2022/02/15 08:58:07;;;;;;;;;;;;;;;;;;4950513;28;20005;-68
2022/02/15 09:00:35;;;;;;;;;;;;;;;;;;4953421;28;19926;-67
2022/02/15 09:03:02;;;;;;;;;;;;;;;;;;4947209;28;19933;-67
2022/02/15 09:05:29;;;;;;;;;;;;;;;;;;4950984;28;19938;-67
2022/02/15 09:07:57;;;;;;;;;;;;;;;;;;4943427;28;20332;-66
2022/02/15 09:10:24;;;;;;;;;;;;;;;;;;4954318;28;19974;-66
2022/02/15 09:12:51;;;;;;;;;;;;;;;;;;4949588;28;19937;-67
2022/02/15 09:15:18;;;;;;;;;;;;;;;;;;4943657;28;19933;-67
2022/02/15 09:17:44;;;;;;;;;;;;;;;;;;4936059;28;19937;-67
2022/02/15 09:20:11;;;;;;;;;;;;;;;;;;4950991;28;19937;-67
2022/02/15 09:22:38;;;;;;;;;;;;;;;;;;4949087;28;19926;-67
2022/02/15 09:25:06;;;;;;;;;;;;;;;;;;4947115;28;19930;-67
2022/02/15 09:27:33;;;;;;;;;;;;;;;;;;4949749;29;20313;-67
2022/02/15 09:30:00;;;;;;;;;;;;;;;;;;4954678;28;19927;-66
2022/02/15 09:32:27;;;;;;;;;;;;;;;;;;4948215;28;19926;-66
2022/02/15 09:34:54;;;;;;;;;;;;;;;;;;4952550;28;19993;-66
2022/02/15 09:37:21;;;;;;;;;;;;;;;;;;4947813;28;19927;-67
2022/02/15 09:39:54;;;;;;;;;;;;;;;;;;4951885;28;19926;-67
2022/02/15 09:42:21;;;;;;;;;;;;;;;;;;4951449;28;20338;-66
2022/02/15 09:44:48;;;;;;;;;;;;;;;;;;4950083;28;19934;-66
2022/02/15 09:47:15;;;;;;;;;;;;;;;;;;4946149;28;19934;-66
2022/02/15 09:49:50;;;;;;;;;;;;;;;;;;4949206;28;19950;-66
2022/02/15 09:52:18;;;;;;;;;;;;;;;;;;4955542;28;20317;-66
2022/02/15 09:54:46;;;;;;;;;;;;;;;;;;4951373;28;19938;-66
2022/02/15 09:57:15;;;;;;;;;;;;;;;;;;4947796;28;19927;-66
2022/02/15 09:59:42;;;;;;;;;;;;;;;;;;4948499;28;19931;-66
2022/02/15 10:02:10;;;;;;;;;;;;;;;;;;4949452;28;19934;-68
2022/02/15 10:04:37;;;;;;;;;;;;;;;;;;4952216;28;19934;-67
2022/02/15 10:07:04;;;;;;;;;;;;;;;;;;4950290;28;20020;-67
2022/02/15 10:09:31;;;;;;;;;;;;;;;;;;4949687;28;20392;-67
2022/02/15 10:11:58;;;;;;;;;;;;;;;;;;4947633;28;20258;-67
2022/02/15 10:14:25;;;;;;;;;;;;;;;;;;4943932;28;19937;-67
2022/02/15 10:16:52;;;;;;;;;;;;;;;;;;4944700;28;19937;-67
2022/02/15 10:19:19;;;;;;;;;;;;;;;;;;4935932;28;19927;-66
2022/02/15 10:21:48;;;;;;;;;;;;;;;;;;4948598;28;19931;-67
2022/02/15 10:24:16;;;;;;;;;;;;;;;;;;4953105;28;19927;-67
2022/02/15 10:26:43;;;;;;;;;;;;;;;;;;4951304;28;19934;-66
2022/02/15 10:29:10;;;;;;;;;;;;;;;;;;4953886;28;19927;-66
2022/02/15 10:31:37;;;;;;;;;;;;;;;;;;4948573;28;19942;-67
2022/02/15 10:34:04;;;;;;;;;;;;;;;;;;4947405;28;19990;-67
2022/02/15 10:36:31;;;;;;;;;;;;;;;;;;4948063;28;19934;-67
2022/02/15 10:39:00;;;;;;;;;;;;;;;;;;4946369;28;20305;-67
2022/02/15 10:41:32;;;;;;;;;;;;;;;;;;4946523;28;19962;-66
2022/02/15 10:44:00;;;;;;;;;;;;;;;;;;4945286;28;20013;-66
2022/02/15 10:46:28;;;;;;;;;;;;;;;;;;4945202;28;20298;-67
2022/02/15 10:48:55;;;;;;;;;;;;;;;;;;4952654;28;20026;-66
2022/02/15 10:51:22;;;;;;;;;;;;;;;;;;4951172;28;19927;-67
2022/02/15 10:53:50;;;;;;;;;;;;;;;;;;4945054;28;19930;-66
2022/02/15 10:56:17;;;;;;;;;;;;;;;;;;4940984;28;19957;-66
2022/02/15 10:58:43;;;;;;;;;;;;;;;;;;4948228;28;20602;-67
2022/02/15 11:01:10;;;;;;;;;;;;;;;;;;4948332;28;19933;-67
2022/02/15 11:03:37;;;;;;;;;;;;;;;;;;4946086;28;20033;-66
2022/02/15 11:06:04;;;;;;;;;;;;;;;;;;4949656;28;19934;-67
2022/02/15 11:08:31;;;;;;;;;;;;;;;;;;4953807;28;19933;-67
2022/02/15 11:10:58;;;;;;;;;;;;;;;;;;4949737;28;19935;-67
2022/02/15 11:13:25;;;;;;;;;;;;;;;;;;4948775;28;19966;-67
2022/02/15 11:15:53;;;;;;;;;;;;;;;;;;4954229;28;19927;-66
2022/02/15 11:18:19;;;;;;;;;;;;;;;;;;4945200;28;20013;-67
2022/02/15 11:20:54;;;;;;;;;;;;;;;;;;4942684;28;19942;-68
2022/02/15 11:23:21;;;;;;;;;;;;;;;;;;4948715;28;19988;-68
2022/02/15 11:25:48;;;;;;;;;;;;;;;;;;4955119;28;19926;-68
2022/02/15 11:28:15;;;;;;;;;;;;;;;;;;4949895;28;19933;-68
2022/02/15 11:30:42;;;;;;;;;;;;;;;;;;4950279;28;19973;-68
2022/02/15 11:33:09;;;;;;;;;;;;;;;;;;4954919;28;19934;-68
2022/02/15 11:35:36;;;;;;;;;;;;;;;;;;4957806;28;20332;-67
2022/02/15 11:38:03;;;;;;;;;;;;;;;;;;4946139;28;19927;-67
2022/02/15 11:40:30;;;;;;;;;;;;;;;;;;4948436;28;20305;-67
2022/02/15 11:42:57;;;;;;;;;;;;;;;;;;4944545;28;19938;-64
2022/02/15 11:45:24;;;;;;;;;;;;;;;;;;4953380;28;19937;-62
2022/02/15 11:47:51;;;;;;;;;;;;;;;;;;4951997;28;19933;-63
2022/02/15 11:50:18;;;;;;;;;;;;;;;;;;4953057;28;20004;-63
2022/02/15 11:52:45;;;;;;;;;;;;;;;;;;4948932;28;19927;-67
2022/02/15 11:55:12;;;;;;;;;;;;;;;;;;4948247;28;19927;-67
2022/02/15 11:57:39;;;;;;;;;;;;;;;;;;4941262;28;20397;-66
2022/02/15 12:00:06;;;;;;;;;;;;;;;;;;4943190;28;19936;-66
2022/02/15 12:02:34;;;;;;;;;;;;;;;;;;4951363;28;19926;-65
2022/02/15 12:05:04;;;;;;;;;;;;;;;;;;4945129;28;19938;-65
2022/02/15 12:07:31;;;;;;;;;;;;;;;;;;4948169;28;19937;-64
2022/02/15 12:09:58;;;;;;;;;;;;;;;;;;4954100;28;20013;-65
2022/02/15 12:12:25;;;;;;;;;;;;;;;;;;4950587;28;19930;-65
2022/02/15 12:14:52;;;;;;;;;;;;;;;;;;4947023;28;19934;-66
2022/02/15 12:17:19;;;;;;;;;;;;;;;;;;4946944;28;19927;-65
2022/02/15 12:19:46;;;;;;;;;;;;;;;;;;4943045;28;20345;-66
2022/02/15 12:22:13;;;;;;;;;;;;;;;;;;4947903;28;19926;-66
2022/02/15 12:24:39;;;;;;;;;;;;;;;;;;4947357;28;19927;-69
2022/02/15 12:27:07;;;;;;;;;;;;;;;;;;4946394;28;19930;-67
2022/02/15 12:29:34;;;;;;;;;;;;;;;;;;4943818;28;19942;-67
2022/02/15 12:32:01;;;;;;;;;;;;;;;;;;4945564;28;19949;-66
2022/02/15 12:34:28;;;;;;;;;;;;;;;;;;4943579;28;19935;-66
2022/02/15 12:36:55;;;;;;;;;;;;;;;;;;4943386;28;19965;-70
2022/02/15 12:39:22;;;;;;;;;;;;;;;;;;4954869;28;20413;-69
2022/02/15 12:41:50;;;;;;;;;;;;;;;;;;4951547;28;19926;-70
2022/02/15 12:44:17;;;;;;;;;;;;;;;;;;4952382;28;19955;-70
2022/02/15 12:46:44;;;;;;;;;;;;;;;;;;4948687;28;20025;-69
2022/02/15 12:49:11;;;;;;;;;;;;;;;;;;4946076;28;19926;-69
2022/02/15 12:51:38;;;;;;;;;;;;;;;;;;4945850;28;19984;-69
2022/02/15 12:54:06;;;;;;;;;;;;;;;;;;4947924;28;20342;-68
2022/02/15 12:56:33;;;;;;;;;;;;;;;;;;4944415;28;20318;-69
2022/02/15 12:59:02;;;;;;;;;;;;;;;;;;4952348;28;19934;-69
2022/02/15 13:01:29;;;;;;;;;;;;;;;;;;4952207;28;20419;-68
2022/02/15 13:03:56;;;;;;;;;;;;;;;;;;4949428;28;19930;-68
2022/02/15 13:06:23;;;;;;;;;;;;;;;;;;4946252;28;19935;-68
2022/02/15 13:08:51;;;;;;;;;;;;;;;;;;4948050;28;20324;-69
2022/02/15 13:11:18;;;;;;;;;;;;;;;;;;4945409;28;19926;-68
2022/02/15 13:13:45;;;;;;;;;;;;;;;;;;4949644;28;20001;-69
2022/02/15 13:16:12;;;;;;;;;;;;;;;;;;4946220;28;20325;-69
2022/02/15 13:18:39;;;;;;;;;;;;;;;;;;4946078;28;19926;-67
2022/02/15 13:21:06;;;;;;;;;;;;;;;;;;4936591;28;19937;-68
2022/02/15 13:23:34;;;;;;;;;;;;;;;;;;4949879;28;19930;-68
2022/02/15 13:26:01;;;;;;;;;;;;;;;;;;4947863;28;19927;-68
2022/02/15 13:28:30;;;;;;;;;;;;;;;;;;4940316;28;20377;-69
2022/02/15 13:30:57;;;;;;;;;;;;;;;;;;4948106;28;20339;-69
2022/02/15 13:33:24;;;;;;;;;;;;;;;;;;4949935;28;19981;-69
2022/02/15 13:35:51;;;;;;;;;;;;;;;;;;4946789;28;19934;-68
2022/02/15 13:38:18;;;;;;;;;;;;;;;;;;4947719;28;19933;-69
2022/02/15 13:40:46;;;;;;;;;;;;;;;;;;4949088;28;19930;-69
2022/02/15 13:43:13;;;;;;;;;;;;;;;;;;4940056;28;20338;-71
2022/02/15 13:45:40;;;;;;;;;;;;;;;;;;4945442;28;19930;-67
2022/02/15 13:48:07;;;;;;;;;;;;;;;;;;4941142;28;20337;-67
2022/02/15 13:50:34;;;;;;;;;;;;;;;;;;4950404;28;19926;-66
2022/02/15 13:53:01;;;;;;;;;;;;;;;;;;4940442;28;19931;-68
2022/02/15 13:55:28;;;;;;;;;;;;;;;;;;4945917;28;19930;-67
2022/02/15 13:57:57;;;;;;;;;;;;;;;;;;4947471;28;20658;-67
2022/02/15 14:00:24;;;;;;;;;;;;;;;;;;4947178;28;20044;-68
2022/02/15 14:02:52;;;;;;;;;;;;;;;;;;4948819;28;19969;-67
2022/02/15 14:05:19;;;;;;;;;;;;;;;;;;4949616;28;19930;-67
2022/02/15 14:07:46;;;;;;;;;;;;;;;;;;4965639;23;20007;-66
2022/02/15 14:10:13;;;;;;;;;;;;;;;;;;4949282;28;19927;-65
2022/02/15 14:12:40;;;;;;;;;;;;;;;;;;4948246;28;19926;-66
2022/02/15 14:15:08;;;;;;;;;;;;;;;;;;4951032;28;19927;-66
2022/02/15 14:17:45;;;;;;;;;;;;;;;;;;4949162;28;20382;-66
2022/02/15 14:20:12;;;;;;;;;;;;;;;;;;4949648;28;19926;-67
2022/02/15 14:22:40;;;;;;;;;;;;;;;;;;4944532;28;19926;-66
2022/02/15 14:25:07;;;;;;;;;;;;;;;;;;4951130;28;19927;-66
2022/02/15 14:27:34;;;;;;;;;;;;;;;;;;4945757;28;19931;-66
2022/02/15 14:30:01;;;;;;;;;;;;;;;;;;4943233;28;20398;-65
2022/02/15 14:32:28;;;;;;;;;;;;;;;;;;4944945;28;19927;-66
2022/02/15 14:34:57;;;;;;;;;;;;;;;;;;4948974;28;19966;-66
2022/02/15 14:37:24;;;;;;;;;;;;;;;;;;4950142;29;20334;-66
2022/02/15 14:39:51;;;;;;;;;;;;;;;;;;4952294;28;19927;-66
2022/02/15 14:42:18;;;;;;;;;;;;;;;;;;4947539;28;19927;-67
2022/02/15 14:44:45;;;;;;;;;;;;;;;;;;4953892;28;19942;-65
2022/02/15 14:47:12;;;;;;;;;;;;;;;;;;4946966;28;19927;-66
2022/02/15 14:49:39;;;;;;;;;;;;;;;;;;4952890;28;19977;-65
2022/02/15 14:52:09;;;;;;;;;;;;;;;;;;4945396;28;19934;-65
2022/02/15 14:54:36;;;;;;;;;;;;;;;;;;4954345;28;19930;-66
2022/02/15 14:57:03;;;;;;;;;;;;;;;;;;4953394;28;20397;-67
2022/02/15 14:59:30;;;;;;;;;;;;;;;;;;4947694;28;20390;-66
2022/02/15 15:01:57;;;;;;;;;;;;;;;;;;4952170;28;19927;-66
2022/02/15 15:04:24;;;;;;;;;;;;;;;;;;4951049;28;20334;-66
2022/02/15 15:06:51;;;;;;;;;;;;;;;;;;4949347;28;20350;-67
2022/02/15 15:09:21;;;;;;;;;;;;;;;;;;4952301;28;19926;-66
2022/02/15 15:11:48;;;;;;;;;;;;;;;;;;4951362;28;19953;-69
2022/02/15 15:14:15;;;;;;;;;;;;;;;;;;4944721;28;20241;-66
2022/02/15 15:16:42;;;;;;;;;;;;;;;;;;4942702;28;19956;-66
2022/02/15 15:19:09;;;;;;;;;;;;;;;;;;4950581;28;19949;-66
2022/02/15 15:21:37;;;;;;;;;;;;;;;;;;4950888;28;20018;-67
2022/02/15 15:24:04;;;;;;;;;;;;;;;;;;4950620;28;19937;-65
2022/02/15 15:26:31;;;;;;;;;;;;;;;;;;4954794;28;19930;-65
2022/02/15 15:28:58;;;;;;;;;;;;;;;;;;4955842;28;19950;-65
2022/02/15 15:31:25;;;;;;;;;;;;;;;;;;4954729;28;20382;-67
2022/02/15 15:33:56;;;;;;;;;;;;;;;;;;4952908;28;19949;-66
2022/02/15 15:36:23;;;;;;;;;;;;;;;;;;4947518;28;19943;-67
2022/02/15 15:38:50;;;;;;;;;;;;;;;;;;4940491;28;20402;-66
2022/02/15 15:41:17;;;;;;;;;;;;;;;;;;4948549;28;19949;-66
2022/02/15 15:43:44;;;;;;;;;;;;;;;;;;4952503;28;19927;-68
2022/02/15 15:46:11;;;;;;;;;;;;;;;;;;4953213;28;20259;-67
2022/02/15 15:48:38;;;;;;;;;;;;;;;;;;4953683;29;19930;-67
2022/02/15 15:51:06;;;;;;;;;;;;;;;;;;4951507;28;20375;-66
2022/02/15 15:53:33;;;;;;;;;;;;;;;;;;4953482;28;19930;-68
2022/02/15 15:56:01;;;;;;;;;;;;;;;;;;4949691;28;19937;-66
2022/02/15 15:58:28;;;;;;;;;;;;;;;;;;4950187;28;19927;-67
2022/02/15 16:00:55;;;;;;;;;;;;;;;;;;4952019;28;20314;-66
2022/02/15 16:03:22;;;;;;;;;;;;;;;;;;4952721;28;19938;-66
2022/02/15 16:05:50;;;;;;;;;;;;;;;;;;4951920;28;19936;-66
2022/02/15 16:08:17;;;;;;;;;;;;;;;;;;4952541;29;19930;-66
2022/02/15 16:10:44;;;;;;;;;;;;;;;;;;4953191;29;19926;-66
2022/02/15 16:13:11;;;;;;;;;;;;;;;;;;4954629;29;19980;-66
2022/02/15 16:15:38;;;;;;;;;;;;;;;;;;4953683;29;19926;-66
2022/02/15 16:18:05;;;;;;;;;;;;;;;;;;4952931;28;19927;-65
2022/02/15 16:20:33;;;;;;;;;;;;;;;;;;4950539;28;19984;-66
2022/02/15 16:23:00;;;;;;;;;;;;;;;;;;4954576;29;19933;-68
2022/02/15 16:25:28;;;;;;;;;;;;;;;;;;4951761;28;19965;-67
2022/02/15 16:27:55;;;;;;;;;;;;;;;;;;4951784;28;19926;-66
2022/02/15 16:30:22;;;;;;;;;;;;;;;;;;4953155;29;19950;-66
2022/02/15 16:32:49;;;;;;;;;;;;;;;;;;4949513;28;19944;-66
2022/02/15 16:35:16;;;;;;;;;;;;;;;;;;4955929;28;19961;-64
2022/02/15 16:37:43;;;;;;;;;;;;;;;;;;4951913;28;19927;-67
2022/02/15 16:40:11;;;;;;;;;;;;;;;;;;4952639;29;20425;-68
2022/02/15 16:42:38;;;;;;;;;;;;;;;;;;4953149;28;19964;-69
2022/02/15 16:45:05;;;;;;;;;;;;;;;;;;4955044;28;19926;-66
2022/02/15 16:47:32;;;;;;;;;;;;;;;;;;4954214;29;19933;-65
2022/02/15 16:49:59;;;;;;;;;;;;;;;;;;4953499;28;19937;-64
2022/02/15 16:52:26;;;;;;;;;;;;;;;;;;4952335;28;19926;-64